createdAt,value
2022-11-30T00:01:59.425Z,45.72
2022-11-30T00:04:28.826Z,46.97
2022-11-30T00:06:57.155Z,49.40
2022-11-30T00:09:25.150Z,54.70
2022-11-30T00:11:52.979Z,52.45
2022-11-30T00:14:20.820Z,46.28
2022-11-30T00:16:48.702Z,54.67
2022-11-30T00:19:16.602Z,47.67
2022-11-30T00:21:45.858Z,52.08
2022-11-30T00:24:13.729Z,50.70
2022-11-30T00:26:41.747Z,50.22
2022-11-30T00:29:09.639Z,49.13
2022-11-30T00:31:37.495Z,55.78
2022-11-30T00:34:05.509Z,48.85
2022-11-30T00:36:33.401Z,50.33
2022-11-30T00:39:02.611Z,46.28
2022-11-30T00:41:30.553Z,57.30
2022-11-30T00:43:58.628Z,51.88
2022-11-30T00:46:26.490Z,56.35
2022-11-30T00:48:54.374Z,57.15
2022-11-30T00:51:22.327Z,57.10
2022-11-30T00:53:50.327Z,54.72
2022-11-30T00:56:19.649Z,56.20
2022-11-30T00:58:47.525Z,57.83
2022-11-30T01:01:15.427Z,60.33
2022-11-30T01:03:43.299Z,61.90
2022-11-30T01:06:11.637Z,53.15
2022-11-30T01:08:39.536Z,53.83
2022-11-30T01:11:10.494Z,50.22
2022-11-30T01:13:39.676Z,56.58
2022-11-30T01:16:12.500Z,50.35
2022-11-30T01:18:40.659Z,53.13
2022-11-30T01:21:09.682Z,48.45
2022-11-30T01:23:37.806Z,55.30
2022-11-30T01:26:05.665Z,51.17
2022-11-30T01:28:33.981Z,47.83
2022-11-30T01:31:05.722Z,48.95
2022-11-30T01:33:34.376Z,48.97
2022-11-30T01:36:04.167Z,45.85
2022-11-30T01:38:36.600Z,54.97
2022-11-30T01:41:05.440Z,46.25
2022-11-30T01:43:42.325Z,42.70
2022-11-30T01:46:25.712Z,45.47
2022-11-30T01:49:00.655Z,43.53
2022-11-30T01:51:33.412Z,43.65
2022-11-30T01:54:02.597Z,44.97
2022-11-30T01:56:30.559Z,48.40
2022-11-30T01:58:58.687Z,44.58
2022-11-30T02:01:28.130Z,45.08
2022-11-30T02:04:01.260Z,45.85
2022-11-30T02:06:30.493Z,41.35
2022-11-30T02:08:58.923Z,52.42
2022-11-30T02:11:28.652Z,46.55
2022-11-30T02:14:19.373Z,49.28
2022-11-30T02:16:58.178Z,47.90
2022-11-30T02:19:57.200Z,43.28
2022-11-30T02:22:38.350Z,43.67
2022-11-30T02:25:13.788Z,50.58
2022-11-30T02:27:59.456Z,43.55
2022-11-30T02:30:31.457Z,44.95
2022-11-30T02:33:06.038Z,43.08
2022-11-30T02:35:37.576Z,46.08
2022-11-30T02:38:06.294Z,51.40
2022-11-30T02:40:34.285Z,45.13
2022-11-30T02:43:04.565Z,41.33
2022-11-30T02:45:39.138Z,41.70
2022-11-30T02:48:10.259Z,44.50
2022-11-30T02:50:42.203Z,46.67
2022-11-30T02:53:11.194Z,45.15
2022-11-30T02:55:39.088Z,54.17
2022-11-30T02:58:07.071Z,42.50
2022-11-30T03:00:36.328Z,48.45
2022-11-30T03:03:04.787Z,43.88
2022-11-30T03:05:33.335Z,46.72
2022-11-30T03:08:01.258Z,39.38
2022-11-30T03:10:29.329Z,47.75
2022-11-30T03:12:59.138Z,46.25
2022-11-30T03:15:27.248Z,46.97
2022-11-30T03:17:56.579Z,45.65
2022-11-30T03:20:24.591Z,44.20
2022-11-30T03:22:52.517Z,44.22
2022-11-30T03:25:20.825Z,49.88
2022-11-30T03:27:48.967Z,45.42
2022-11-30T03:30:17.242Z,47.42
2022-11-30T03:32:45.187Z,47.22
2022-11-30T03:35:14.507Z,42.15
2022-11-30T03:37:42.447Z,43.97
2022-11-30T03:40:11.418Z,47.15
2022-11-30T03:42:39.380Z,45.80
2022-11-30T03:45:08.099Z,42.28
2022-11-30T03:47:36.178Z,53.55
2022-11-30T03:50:04.908Z,41.58
2022-11-30T03:52:34.176Z,40.83
2022-11-30T03:55:02.041Z,43.47
2022-11-30T03:57:30.020Z,42.03
2022-11-30T03:59:57.869Z,39.50
2022-11-30T04:02:25.862Z,38.65
2022-11-30T04:04:53.944Z,41.83
2022-11-30T04:07:22.033Z,45.58
2022-11-30T04:09:51.278Z,34.08
2022-11-30T04:12:19.107Z,42.65
2022-11-30T04:14:47.239Z,40.30
2022-11-30T04:17:15.271Z,44.60
2022-11-30T04:19:43.290Z,41.42
2022-11-30T04:22:11.381Z,41.78
2022-11-30T04:24:39.212Z,47.30
2022-11-30T04:27:08.462Z,39.72
2022-11-30T04:29:36.352Z,43.25
2022-11-30T04:32:04.603Z,45.58
2022-11-30T04:34:32.574Z,46.05
2022-11-30T04:37:00.805Z,43.50
2022-11-30T04:39:28.751Z,50.38
2022-11-30T04:41:56.683Z,49.63
2022-11-30T04:44:26.128Z,58.60
2022-11-30T04:46:54.165Z,53.78
2022-11-30T04:49:22.032Z,63.00
2022-11-30T04:51:50.043Z,58.08
2022-11-30T04:54:17.896Z,61.10
2022-11-30T04:56:45.914Z,52.97
2022-11-30T04:59:13.740Z,57.05
2022-11-30T05:01:43.019Z,65.05
2022-11-30T05:04:11.336Z,52.35
2022-11-30T05:06:39.386Z,57.20
2022-11-30T05:09:09.813Z,58.75
2022-11-30T05:11:37.945Z,60.85
2022-11-30T05:14:06.383Z,58.22
2022-11-30T05:16:34.374Z,59.22
2022-11-30T05:19:03.984Z,63.17
2022-11-30T05:21:32.227Z,63.35
2022-11-30T05:24:00.366Z,62.75
2022-11-30T05:26:28.276Z,59.63
2022-11-30T05:28:56.616Z,55.30
2022-11-30T05:31:24.757Z,61.42
2022-11-30T05:33:53.427Z,56.15
2022-11-30T05:36:22.948Z,59.17
2022-11-30T05:38:50.855Z,63.75
2022-11-30T05:41:18.729Z,78.47
2022-11-30T05:43:46.602Z,53.75
2022-11-30T05:46:14.592Z,56.92
2022-11-30T05:48:42.466Z,54.50
2022-11-30T05:51:12.162Z,55.47
2022-11-30T05:53:41.600Z,55.08
2022-11-30T05:56:11.961Z,57.50
2022-11-30T05:58:40.807Z,61.92
2022-11-30T06:01:09.185Z,56.60
2022-11-30T06:03:37.484Z,53.92
2022-11-30T06:06:05.659Z,56.65
2022-11-30T06:08:34.005Z,51.10
2022-11-30T06:11:03.677Z,52.65
2022-11-30T06:13:32.764Z,52.85
2022-11-30T06:16:01.190Z,51.80
2022-11-30T06:18:29.639Z,55.08
2022-11-30T06:21:02.440Z,57.47
2022-11-30T06:23:30.696Z,47.58
2022-11-30T06:25:58.564Z,54.25
2022-11-30T06:28:27.790Z,46.78
2022-11-30T06:30:59.588Z,54.90
2022-11-30T06:33:27.787Z,57.03
2022-11-30T06:35:56.358Z,51.40
2022-11-30T06:38:25.887Z,47.95
2022-11-30T06:40:54.333Z,50.30
2022-11-30T06:43:22.341Z,42.85
2022-11-30T06:45:51.714Z,45.42
2022-11-30T06:48:22.434Z,47.03
2022-11-30T06:50:50.607Z,39.53
2022-11-30T06:53:18.585Z,45.60
2022-11-30T06:55:46.578Z,39.95
2022-11-30T06:58:14.529Z,38.95
2022-11-30T07:00:42.771Z,40.53
2022-11-30T07:03:12.939Z,39.90
2022-11-30T07:05:43.537Z,46.45
2022-11-30T07:08:11.608Z,39.28
2022-11-30T07:10:44.236Z,40.83
2022-11-30T07:13:12.948Z,42.15
2022-11-30T07:15:43.502Z,43.40
2022-11-30T07:18:13.372Z,44.60
2022-11-30T07:20:41.453Z,40.47
2022-11-30T07:23:27.460Z,36.95
2022-11-30T07:26:09.575Z,46.97
2022-11-30T07:28:39.910Z,40.53
2022-11-30T07:31:16.793Z,38.55
2022-11-30T07:33:46.234Z,39.97
2022-11-30T07:36:14.429Z,34.72
2022-11-30T07:38:42.409Z,38.75
2022-11-30T07:41:10.920Z,36.22
2022-11-30T07:43:39.471Z,38.85
2022-11-30T07:46:08.466Z,40.25
2022-11-30T07:48:36.370Z,42.30
2022-11-30T07:51:07.093Z,34.00
2022-11-30T07:53:35.553Z,41.05
2022-11-30T07:56:05.336Z,36.60
2022-11-30T07:58:33.756Z,42.55
2022-11-30T08:01:03.780Z,37.10
2022-11-30T08:03:36.612Z,43.00
2022-11-30T08:06:08.826Z,36.45
2022-11-30T08:08:40.931Z,35.72
2022-11-30T08:11:11.159Z,40.70
2022-11-30T08:13:39.645Z,36.53
2022-11-30T08:16:10.221Z,33.70
2022-11-30T08:18:38.067Z,33.50
2022-11-30T08:21:09.737Z,41.92
2022-11-30T08:23:39.632Z,28.05
2022-11-30T08:26:09.813Z,30.42
2022-11-30T08:28:38.184Z,34.92
2022-11-30T08:31:09.904Z,36.92
2022-11-30T08:33:38.892Z,36.25
2022-11-30T08:36:09.510Z,36.05
2022-11-30T08:38:38.229Z,40.83
2022-11-30T08:41:07.205Z,33.63
2022-11-30T08:43:38.257Z,31.83
2022-11-30T08:46:34.556Z,38.55
2022-11-30T08:49:13.064Z,36.00
2022-11-30T08:52:15.870Z,31.10
2022-11-30T08:54:36.902Z,36.08
2022-11-30T08:57:05.781Z,34.90
2022-11-30T08:59:33.804Z,33.97
2022-11-30T09:02:01.833Z,37.40
2022-11-30T09:04:30.126Z,39.88
2022-11-30T09:07:01.027Z,40.95
2022-11-30T09:09:29.183Z,34.75
2022-11-30T09:11:57.532Z,38.00
2022-11-30T09:14:25.620Z,37.53
2022-11-30T09:16:54.464Z,40.22
2022-11-30T09:19:23.008Z,41.33
2022-11-30T09:21:52.275Z,41.55
2022-11-30T09:24:21.992Z,46.20
2022-11-30T09:26:49.795Z,44.13
2022-11-30T09:29:17.770Z,45.47
2022-11-30T09:31:45.708Z,44.42
2022-11-30T09:34:14.121Z,44.70
2022-11-30T09:36:42.072Z,36.53
2022-11-30T09:39:13.142Z,45.90
2022-11-30T09:42:10.582Z,45.15
2022-11-30T09:44:51.056Z,46.58
2022-11-30T09:47:43.057Z,47.80
2022-11-30T09:50:15.567Z,49.70
2022-11-30T09:52:47.780Z,51.67
2022-11-30T09:55:27.544Z,52.08
2022-11-30T09:58:01.932Z,55.75
2022-11-30T10:00:31.879Z,49.70
2022-11-30T10:03:05.659Z,50.15
2022-11-30T10:05:47.418Z,52.78
2022-11-30T10:08:28.768Z,46.47
2022-11-30T10:11:14.941Z,50.65
2022-11-30T10:13:57.361Z,50.33
2022-11-30T10:16:36.175Z,53.53
2022-11-30T10:19:16.870Z,48.30
2022-11-30T10:21:58.554Z,52.03
2022-11-30T10:24:37.207Z,54.42
2022-11-30T10:27:16.045Z,48.55
2022-11-30T10:29:45.545Z,49.95
2022-11-30T10:32:20.927Z,45.83
2022-11-30T10:34:52.746Z,49.92
2022-11-30T10:37:31.355Z,48.47
2022-11-30T10:40:02.750Z,46.63
2022-11-30T10:42:36.161Z,45.33
2022-11-30T10:45:10.937Z,47.75
2022-11-30T10:47:44.712Z,45.58
2022-11-30T10:50:17.894Z,43.25
2022-11-30T10:52:48.736Z,46.80
2022-11-30T10:55:20.444Z,46.55
2022-11-30T10:57:51.029Z,43.65
2022-11-30T11:00:21.388Z,50.45
2022-11-30T11:02:50.680Z,46.67
2022-11-30T11:05:22.993Z,44.28
2022-11-30T11:07:55.299Z,44.10
2022-11-30T11:10:30.456Z,42.22
2022-11-30T11:12:58.715Z,48.00
2022-11-30T11:15:30.280Z,44.30
2022-11-30T11:18:26.102Z,50.38
2022-11-30T11:21:07.124Z,46.08
2022-11-30T11:23:38.189Z,50.75
2022-11-30T11:26:07.586Z,48.38
2022-11-30T11:28:37.614Z,53.03
2022-11-30T11:31:20.142Z,50.15
2022-11-30T11:33:53.076Z,45.72
2022-11-30T11:36:28.872Z,48.47
2022-11-30T11:38:58.097Z,48.58
2022-11-30T11:41:29.902Z,49.83
2022-11-30T11:44:03.578Z,47.83
2022-11-30T11:46:34.328Z,41.20
2022-11-30T11:49:05.647Z,52.10
2022-11-30T11:51:37.275Z,43.42
2022-11-30T11:54:19.627Z,49.15
2022-11-30T11:56:48.030Z,46.42
2022-11-30T11:59:22.391Z,47.60
2022-11-30T12:01:58.438Z,48.65
2022-11-30T12:04:51.456Z,50.10
2022-11-30T12:07:28.586Z,45.95
2022-11-30T12:10:50.045Z,50.72
2022-11-30T12:13:13.993Z,46.95
2022-11-30T12:15:54.208Z,52.05
2022-11-30T12:18:29.242Z,53.17
2022-11-30T12:21:01.659Z,45.15
2022-11-30T12:23:58.125Z,53.83
2022-11-30T12:26:35.594Z,55.85
2022-11-30T12:29:21.384Z,61.25
2022-11-30T12:32:03.483Z,56.20
2022-11-30T12:35:00.954Z,57.83
2022-11-30T12:37:41.693Z,56.55
2022-11-30T12:40:27.312Z,58.65
2022-11-30T12:43:02.927Z,60.05
2022-11-30T12:45:36.867Z,57.20
2022-11-30T12:48:16.132Z,53.80
2022-11-30T12:51:01.906Z,65.82
2022-11-30T12:53:35.544Z,67.25
2022-11-30T12:58:47.375Z,68.30
2022-11-30T13:01:31.739Z,59.53
2022-11-30T13:04:07.898Z,61.40
2022-11-30T13:06:42.864Z,63.05
2022-11-30T13:09:17.051Z,64.53
2022-11-30T13:11:49.257Z,61.40
2022-11-30T13:14:22.622Z,62.22
2022-11-30T13:16:57.364Z,60.65
2022-11-30T13:19:40.981Z,63.28
2022-11-30T13:22:17.824Z,61.30
2022-11-30T13:24:54.639Z,64.40
2022-11-30T13:27:26.403Z,64.53
2022-11-30T13:30:26.924Z,67.75
2022-11-30T13:32:58.956Z,64.68
2022-11-30T13:35:46.272Z,75.07
2022-11-30T13:38:36.488Z,75.07
2022-11-30T13:41:08.650Z,65.57
2022-11-30T13:43:42.725Z,73.00
2022-11-30T13:46:20.376Z,62.70
2022-11-30T13:48:49.377Z,73.47
2022-11-30T13:51:35.831Z,76.55
2022-11-30T13:54:42.315Z,77.88
2022-11-30T13:57:20.226Z,70.32
2022-11-30T13:59:51.547Z,72.45
2022-11-30T14:02:59.205Z,76.25
2022-11-30T14:05:43.018Z,81.55
2022-11-30T14:08:40.851Z,82.65
2022-11-30T14:11:38.183Z,75.60
2022-11-30T14:14:45.603Z,75.43
2022-11-30T14:17:27.010Z,80.50
2022-11-30T14:19:59.643Z,78.85
2022-11-30T14:22:30.076Z,82.10
2022-11-30T14:24:58.757Z,81.75
2022-11-30T14:27:29.844Z,77.68
2022-11-30T14:30:03.070Z,77.60
2022-11-30T14:32:37.861Z,85.75
2022-11-30T14:35:10.714Z,81.85
2022-11-30T14:37:44.610Z,77.13
2022-11-30T14:40:19.863Z,75.85
2022-11-30T14:42:50.107Z,70.57
2022-11-30T14:45:24.721Z,73.20
2022-11-30T14:48:06.894Z,78.30
2022-11-30T14:50:36.602Z,80.03
2022-11-30T14:53:26.860Z,78.93
2022-11-30T14:56:14.479Z,80.32
2022-11-30T14:58:55.354Z,82.47
2022-11-30T15:01:36.529Z,76.07
2022-11-30T15:04:08.112Z,79.00
2022-11-30T15:06:39.426Z,77.15
2022-11-30T15:09:16.426Z,73.60
2022-11-30T15:11:46.205Z,83.97
2022-11-30T15:14:14.376Z,75.82
2022-11-30T15:16:50.827Z,76.70
2022-11-30T15:19:24.432Z,78.43
2022-11-30T15:24:21.272Z,80.03
2022-11-30T15:26:56.224Z,78.43
2022-11-30T15:29:29.031Z,71.00
2022-11-30T15:32:00.417Z,85.05
2022-11-30T15:34:40.529Z,79.88
2022-11-30T15:37:08.674Z,78.85
2022-11-30T15:39:37.254Z,80.15
2022-11-30T15:42:06.537Z,72.32
2022-11-30T15:44:44.196Z,86.75
2022-11-30T15:47:27.573Z,95.90
2022-11-30T15:49:56.722Z,102.63
2022-11-30T15:52:28.241Z,96.40
2022-11-30T15:54:58.771Z,84.60
2022-11-30T15:57:30.835Z,82.28
2022-11-30T16:00:09.015Z,86.00
2022-11-30T16:02:39.438Z,89.95
2022-11-30T16:05:25.879Z,92.93
2022-11-30T16:07:55.923Z,84.57
2022-11-30T16:10:25.953Z,81.18
2022-11-30T16:12:55.495Z,87.72
2022-11-30T16:15:26.530Z,88.47
2022-11-30T16:18:00.200Z,89.97
2022-11-30T16:22:59.885Z,85.18
2022-11-30T16:25:30.782Z,90.68
2022-11-30T16:27:58.845Z,86.85
2022-11-30T16:30:27.774Z,92.28
2022-11-30T16:32:57.196Z,87.82
2022-11-30T16:35:30.651Z,87.22
2022-11-30T16:37:58.719Z,87.88
2022-11-30T16:40:26.851Z,91.72
2022-11-30T16:42:54.973Z,100.20
2022-11-30T16:45:25.060Z,92.90
2022-11-30T16:47:53.371Z,85.40
2022-11-30T16:50:22.923Z,91.55
2022-11-30T16:52:50.972Z,95.00
2022-11-30T16:55:21.355Z,88.93
2022-11-30T16:57:50.426Z,93.22
2022-11-30T17:00:20.621Z,97.32
2022-11-30T17:02:57.752Z,91.50
2022-11-30T17:05:27.560Z,94.88
2022-11-30T17:07:55.931Z,93.38
2022-11-30T17:10:24.028Z,97.00
2022-11-30T17:12:52.085Z,87.18
2022-11-30T17:15:23.524Z,87.28
2022-11-30T17:17:51.558Z,98.00
2022-11-30T17:20:20.194Z,92.38
2022-11-30T17:22:49.527Z,95.43
2022-11-30T17:25:20.612Z,94.10
2022-11-30T17:27:50.542Z,91.45
2022-11-30T17:30:20.887Z,91.82
2022-11-30T17:32:49.104Z,103.47
2022-11-30T17:35:17.140Z,93.32
2022-11-30T17:37:45.040Z,93.07
2022-11-30T17:40:16.092Z,98.43
2022-11-30T17:42:44.840Z,86.03
2022-11-30T17:45:13.047Z,92.68
2022-11-30T17:47:41.080Z,97.53
2022-11-30T17:50:10.109Z,102.03
2022-11-30T17:52:38.148Z,96.28
2022-11-30T17:55:06.969Z,83.97
2022-11-30T17:57:38.156Z,99.57
2022-11-30T18:00:07.704Z,92.82
2022-11-30T18:02:35.828Z,94.72
2022-11-30T18:05:03.981Z,93.28
2022-11-30T18:07:31.954Z,90.00
2022-11-30T18:10:01.745Z,97.55
2022-11-30T18:12:29.566Z,97.38
2022-11-30T18:14:58.841Z,89.15
2022-11-30T18:17:26.779Z,98.88
2022-11-30T18:19:54.660Z,90.90
2022-11-30T18:22:22.643Z,85.18
2022-11-30T18:24:51.097Z,85.47
2022-11-30T18:27:19.054Z,97.97
2022-11-30T18:29:46.897Z,89.90
2022-11-30T18:32:16.301Z,92.65
2022-11-30T18:34:49.202Z,85.72
2022-11-30T18:37:17.601Z,92.75
2022-11-30T18:39:45.788Z,89.07
2022-11-30T18:42:16.363Z,89.97
2022-11-30T18:44:45.027Z,92.05
2022-11-30T18:47:13.329Z,95.30
2022-11-30T18:49:43.251Z,87.03
2022-11-30T18:52:12.103Z,92.78
2022-11-30T18:54:40.303Z,86.45
2022-11-30T18:57:08.520Z,95.45
2022-11-30T18:59:36.695Z,93.35
2022-11-30T19:02:05.867Z,87.50
2022-11-30T19:04:34.179Z,90.22
2022-11-30T19:07:04.128Z,83.25
2022-11-30T19:09:32.440Z,90.18
2022-11-30T19:12:00.698Z,89.85
2022-11-30T19:14:29.144Z,82.13
2022-11-30T19:16:57.967Z,81.30
2022-11-30T19:19:28.148Z,89.47
2022-11-30T19:21:58.217Z,91.00
2022-11-30T19:24:28.361Z,83.63
2022-11-30T19:26:56.823Z,92.07
2022-11-30T19:29:24.895Z,91.93
2022-11-30T19:31:52.739Z,84.63
2022-11-30T19:34:21.379Z,82.60
2022-11-30T19:36:49.686Z,94.78
2022-11-30T19:39:18.217Z,92.65
2022-11-30T19:41:48.056Z,86.57
2022-11-30T19:44:16.767Z,89.78
2022-11-30T19:46:44.804Z,89.78
2022-11-30T19:49:12.823Z,82.78
2022-11-30T19:51:40.790Z,93.45
2022-11-30T19:54:08.819Z,85.85
2022-11-30T19:56:38.904Z,83.45
2022-11-30T19:59:08.418Z,85.55
2022-11-30T20:01:37.537Z,97.15
2022-11-30T20:04:06.069Z,95.28
2022-11-30T20:06:37.461Z,92.78
2022-11-30T20:09:07.501Z,87.10
2022-11-30T20:11:36.132Z,85.65
2022-11-30T20:14:04.588Z,89.40
2022-11-30T20:16:34.024Z,101.95
2022-11-30T20:19:03.196Z,97.70
2022-11-30T20:21:33.436Z,92.72
2022-11-30T20:24:04.523Z,94.35
2022-11-30T20:26:34.651Z,97.57
2022-11-30T20:29:04.257Z,84.55
2022-11-30T20:31:35.489Z,88.45
2022-11-30T20:34:03.850Z,89.68
2022-11-30T20:36:32.226Z,98.72
2022-11-30T20:39:00.662Z,86.88
2022-11-30T20:41:28.624Z,93.75
2022-11-30T20:43:57.005Z,94.22
2022-11-30T20:46:27.425Z,97.63
2022-11-30T20:48:57.612Z,96.07
2022-11-30T20:51:32.206Z,90.15
2022-11-30T20:54:05.704Z,98.22
2022-11-30T20:56:35.377Z,91.75
2022-11-30T20:59:06.128Z,97.55
2022-11-30T21:01:38.859Z,95.60
2022-11-30T21:04:08.722Z,88.50
2022-11-30T21:06:37.037Z,91.68
2022-11-30T21:09:05.708Z,91.80
2022-11-30T21:11:34.051Z,93.15
2022-11-30T21:14:02.409Z,94.45
2022-11-30T21:16:30.659Z,96.90
2022-11-30T21:18:59.850Z,88.53
2022-11-30T21:21:31.672Z,98.75
2022-11-30T21:24:01.187Z,89.15
2022-11-30T21:26:31.732Z,91.53
2022-11-30T21:29:02.061Z,98.57
2022-11-30T21:31:30.608Z,98.70
2022-11-30T21:33:58.792Z,91.35
2022-11-30T21:36:27.449Z,99.55
2022-11-30T21:39:04.420Z,92.65
2022-11-30T21:41:34.080Z,104.40
2022-11-30T21:44:02.216Z,100.22
2022-11-30T21:46:30.319Z,98.47
2022-11-30T21:48:58.913Z,99.78
2022-11-30T21:51:28.873Z,102.60
2022-11-30T21:54:00.406Z,92.65
2022-11-30T21:56:29.990Z,93.57
2022-11-30T21:58:58.475Z,95.57
2022-11-30T22:01:28.461Z,90.03
2022-11-30T22:03:58.024Z,104.57
2022-11-30T22:06:27.532Z,92.35
2022-11-30T22:09:02.654Z,99.07
2022-11-30T22:11:31.743Z,104.90
2022-11-30T22:13:59.771Z,121.75
2022-11-30T22:16:35.960Z,109.53
2022-11-30T22:19:05.661Z,115.15
2022-11-30T22:21:34.244Z,109.40
2022-11-30T22:24:05.529Z,107.70
2022-11-30T22:26:35.238Z,106.18
2022-11-30T22:29:06.427Z,96.53
2022-11-30T22:31:37.760Z,108.10
2022-11-30T22:34:06.540Z,105.15
2022-11-30T22:36:36.415Z,98.53
2022-11-30T22:39:09.187Z,105.47
2022-11-30T22:41:37.632Z,101.03
2022-11-30T22:44:05.982Z,100.47
2022-11-30T22:46:35.797Z,96.18
2022-11-30T22:49:06.088Z,104.60
2022-11-30T22:51:35.598Z,94.80
2022-11-30T22:54:05.725Z,105.18
2022-11-30T22:56:35.426Z,102.32
2022-11-30T22:59:04.601Z,92.50
2022-11-30T23:01:34.578Z,104.63
2022-11-30T23:04:06.096Z,95.10
2022-11-30T23:06:35.169Z,103.20
2022-11-30T23:09:04.237Z,96.63
2022-11-30T23:11:34.513Z,94.38
2022-11-30T23:14:08.035Z,105.07
2022-11-30T23:16:37.712Z,103.70
2022-11-30T23:19:07.171Z,94.93
2022-11-30T23:21:41.049Z,93.43
2022-11-30T23:24:13.729Z,102.85
2022-11-30T23:26:43.793Z,95.15
2022-11-30T23:29:13.529Z,103.70
2022-11-30T23:31:43.478Z,108.47
2022-11-30T23:34:13.513Z,99.30
2022-11-30T23:36:41.365Z,97.03
2022-11-30T23:39:11.178Z,103.07
2022-11-30T23:41:39.736Z,90.53
2022-11-30T23:44:09.560Z,102.25
2022-11-30T23:46:38.188Z,94.45
2022-11-30T23:49:06.329Z,101.43
2022-11-30T23:51:34.196Z,102.35
2022-11-30T23:54:02.194Z,98.10
2022-11-30T23:56:30.238Z,102.60
2022-11-30T23:58:58.288Z,100.03
